sensor_id;sensor_type;location;lat;lon;timestamp;P1;durP1;ratioP1;P2;durP2;ratioP2
60430;SDS011;46285;45.122;20.726;2022-07-30T00:00:57;12.82;;;11.00;;
60430;SDS011;46285;45.122;20.726;2022-07-30T00:03:24;13.13;;;10.55;;
60430;SDS011;46285;45.122;20.726;2022-07-30T00:05:51;14.70;;;11.60;;
60430;SDS011;46285;45.122;20.726;2022-07-30T00:10:44;14.32;;;10.73;;
60430;SDS011;46285;45.122;20.726;2022-07-30T00:13:10;12.02;;;10.40;;
60430;SDS011;46285;45.122;20.726;2022-07-30T00:15:37;14.15;;;12.05;;
60430;SDS011;46285;45.122;20.726;2022-07-30T00:18:03;17.80;;;12.13;;
60430;SDS011;46285;45.122;20.726;2022-07-30T00:20:29;14.50;;;10.75;;
60430;SDS011;46285;45.122;20.726;2022-07-30T00:22:55;13.13;;;11.82;;
60430;SDS011;46285;45.122;20.726;2022-07-30T00:25:21;12.57;;;11.15;;
60430;SDS011;46285;45.122;20.726;2022-07-30T00:27:48;13.52;;;10.68;;
60430;SDS011;46285;45.122;20.726;2022-07-30T00:30:14;15.10;;;11.00;;
60430;SDS011;46285;45.122;20.726;2022-07-30T00:32:40;13.30;;;11.35;;
60430;SDS011;46285;45.122;20.726;2022-07-30T00:35:06;13.48;;;10.88;;
60430;SDS011;46285;45.122;20.726;2022-07-30T00:37:33;12.53;;;10.50;;
60430;SDS011;46285;45.122;20.726;2022-07-30T00:39:59;14.45;;;11.20;;
60430;SDS011;46285;45.122;20.726;2022-07-30T00:42:35;13.82;;;11.50;;
60430;SDS011;46285;45.122;20.726;2022-07-30T00:45:01;11.98;;;10.73;;
60430;SDS011;46285;45.122;20.726;2022-07-30T00:47:28;15.80;;;10.30;;
60430;SDS011;46285;45.122;20.726;2022-07-30T00:49:54;13.75;;;10.52;;
60430;SDS011;46285;45.122;20.726;2022-07-30T00:52:20;13.45;;;11.20;;
60430;SDS011;46285;45.122;20.726;2022-07-30T00:54:46;13.90;;;11.35;;
60430;SDS011;46285;45.122;20.726;2022-07-30T00:57:13;15.07;;;11.60;;
60430;SDS011;46285;45.122;20.726;2022-07-30T00:59:39;13.93;;;10.25;;
60430;SDS011;46285;45.122;20.726;2022-07-30T01:02:05;13.50;;;11.48;;
60430;SDS011;46285;45.122;20.726;2022-07-30T01:04:32;12.65;;;10.60;;
60430;SDS011;46285;45.122;20.726;2022-07-30T01:06:58;14.93;;;11.38;;
60430;SDS011;46285;45.122;20.726;2022-07-30T01:09:24;14.02;;;11.77;;
60430;SDS011;46285;45.122;20.726;2022-07-30T01:11:50;13.93;;;12.52;;
60430;SDS011;46285;45.122;20.726;2022-07-30T01:14:17;19.98;;;13.05;;
60430;SDS011;46285;45.122;20.726;2022-07-30T01:16:43;13.73;;;11.25;;
60430;SDS011;46285;45.122;20.726;2022-07-30T01:19:27;12.85;;;11.48;;
60430;SDS011;46285;45.122;20.726;2022-07-30T01:24:40;13.10;;;11.50;;
60430;SDS011;46285;45.122;20.726;2022-07-30T01:27:07;14.27;;;11.80;;
60430;SDS011;46285;45.122;20.726;2022-07-30T01:29:35;16.02;;;11.75;;
60430;SDS011;46285;45.122;20.726;2022-07-30T01:32:03;13.85;;;11.57;;
60430;SDS011;46285;45.122;20.726;2022-07-30T01:34:31;16.30;;;11.75;;
60430;SDS011;46285;45.122;20.726;2022-07-30T01:36:58;16.17;;;11.60;;
60430;SDS011;46285;45.122;20.726;2022-07-30T01:39:27;12.57;;;11.18;;
60430;SDS011;46285;45.122;20.726;2022-07-30T01:44:21;16.83;;;11.48;;
60430;SDS011;46285;45.122;20.726;2022-07-30T01:46:48;15.13;;;12.68;;
60430;SDS011;46285;45.122;20.726;2022-07-30T01:49:15;15.52;;;11.98;;
60430;SDS011;46285;45.122;20.726;2022-07-30T01:51:42;14.07;;;12.63;;
60430;SDS011;46285;45.122;20.726;2022-07-30T01:54:09;15.50;;;11.35;;
60430;SDS011;46285;45.122;20.726;2022-07-30T01:56:37;14.57;;;12.85;;
60430;SDS011;46285;45.122;20.726;2022-07-30T01:59:04;14.60;;;11.73;;
60430;SDS011;46285;45.122;20.726;2022-07-30T02:01:30;14.30;;;12.57;;
60430;SDS011;46285;45.122;20.726;2022-07-30T02:03:57;13.75;;;12.35;;
60430;SDS011;46285;45.122;20.726;2022-07-30T02:06:25;14.45;;;12.75;;
60430;SDS011;46285;45.122;20.726;2022-07-30T02:08:55;13.15;;;11.52;;
60430;SDS011;46285;45.122;20.726;2022-07-30T02:11:23;14.88;;;11.75;;
60430;SDS011;46285;45.122;20.726;2022-07-30T02:14:10;14.98;;;13.15;;
60430;SDS011;46285;45.122;20.726;2022-07-30T02:16:39;14.18;;;12.18;;
60430;SDS011;46285;45.122;20.726;2022-07-30T02:19:11;16.27;;;12.95;;
60430;SDS011;46285;45.122;20.726;2022-07-30T02:21:51;14.98;;;13.43;;
60430;SDS011;46285;45.122;20.726;2022-07-30T02:24:20;15.80;;;12.27;;
60430;SDS011;46285;45.122;20.726;2022-07-30T02:26:49;18.65;;;13.93;;
60430;SDS011;46285;45.122;20.726;2022-07-30T02:29:16;15.13;;;13.63;;
60430;SDS011;46285;45.122;20.726;2022-07-30T02:31:43;15.23;;;12.88;;
60430;SDS011;46285;45.122;20.726;2022-07-30T02:34:10;14.30;;;12.80;;
60430;SDS011;46285;45.122;20.726;2022-07-30T02:36:38;13.88;;;12.38;;
60430;SDS011;46285;45.122;20.726;2022-07-30T02:39:06;13.88;;;12.38;;
60430;SDS011;46285;45.122;20.726;2022-07-30T02:41:33;14.13;;;12.63;;
60430;SDS011;46285;45.122;20.726;2022-07-30T02:44:00;14.23;;;11.88;;
60430;SDS011;46285;45.122;20.726;2022-07-30T02:46:27;14.85;;;12.35;;
60430;SDS011;46285;45.122;20.726;2022-07-30T02:48:53;14.98;;;12.45;;
60430;SDS011;46285;45.122;20.726;2022-07-30T02:53:47;16.90;;;11.82;;
60430;SDS011;46285;45.122;20.726;2022-07-30T02:56:14;13.85;;;11.18;;
60430;SDS011;46285;45.122;20.726;2022-07-30T02:58:45;13.25;;;11.85;;
60430;SDS011;46285;45.122;20.726;2022-07-30T03:01:12;12.35;;;11.05;;
60430;SDS011;46285;45.122;20.726;2022-07-30T03:03:41;14.27;;;11.73;;
60430;SDS011;46285;45.122;20.726;2022-07-30T03:06:07;12.25;;;9.95;;
60430;SDS011;46285;45.122;20.726;2022-07-30T03:08:34;14.45;;;10.15;;
60430;SDS011;46285;45.122;20.726;2022-07-30T03:11:00;16.60;;;11.18;;
60430;SDS011;46285;45.122;20.726;2022-07-30T03:13:27;15.77;;;10.25;;
60430;SDS011;46285;45.122;20.726;2022-07-30T03:15:53;13.73;;;9.98;;
60430;SDS011;46285;45.122;20.726;2022-07-30T03:18:21;13.25;;;9.82;;
60430;SDS011;46285;45.122;20.726;2022-07-30T03:20:49;12.50;;;10.23;;
60430;SDS011;46285;45.122;20.726;2022-07-30T03:23:16;12.27;;;9.43;;
60430;SDS011;46285;45.122;20.726;2022-07-30T03:25:47;14.07;;;9.45;;
60430;SDS011;46285;45.122;20.726;2022-07-30T03:28:13;10.77;;;9.15;;
60430;SDS011;46285;45.122;20.726;2022-07-30T03:30:40;11.82;;;10.15;;
60430;SDS011;46285;45.122;20.726;2022-07-30T03:33:08;10.05;;;8.77;;
60430;SDS011;46285;45.122;20.726;2022-07-30T03:35:36;17.42;;;10.20;;
60430;SDS011;46285;45.122;20.726;2022-07-30T03:38:02;13.57;;;9.20;;
60430;SDS011;46285;45.122;20.726;2022-07-30T03:40:29;12.10;;;9.80;;
60430;SDS011;46285;45.122;20.726;2022-07-30T03:42:55;13.50;;;10.07;;
60430;SDS011;46285;45.122;20.726;2022-07-30T03:45:22;16.60;;;10.02;;
60430;SDS011;46285;45.122;20.726;2022-07-30T03:47:48;18.50;;;9.77;;
60430;SDS011;46285;45.122;20.726;2022-07-30T03:50:15;13.70;;;9.70;;
60430;SDS011;46285;45.122;20.726;2022-07-30T03:52:41;11.75;;;7.72;;
60430;SDS011;46285;45.122;20.726;2022-07-30T03:55:08;15.65;;;9.20;;
60430;SDS011;46285;45.122;20.726;2022-07-30T03:57:35;10.90;;;8.57;;
60430;SDS011;46285;45.122;20.726;2022-07-30T04:00:05;14.00;;;8.37;;
60430;SDS011;46285;45.122;20.726;2022-07-30T04:02:39;13.50;;;8.27;;
60430;SDS011;46285;45.122;20.726;2022-07-30T04:05:06;11.02;;;8.30;;
60430;SDS011;46285;45.122;20.726;2022-07-30T04:07:32;14.97;;;8.00;;
60430;SDS011;46285;45.122;20.726;2022-07-30T04:09:58;11.30;;;7.03;;
60430;SDS011;46285;45.122;20.726;2022-07-30T04:12:24;11.52;;;7.57;;
60430;SDS011;46285;45.122;20.726;2022-07-30T04:14:50;18.80;;;7.28;;
60430;SDS011;46285;45.122;20.726;2022-07-30T04:17:21;14.43;;;6.97;;
60430;SDS011;46285;45.122;20.726;2022-07-30T04:19:53;14.20;;;6.80;;
60430;SDS011;46285;45.122;20.726;2022-07-30T04:22:22;15.23;;;6.75;;
60430;SDS011;46285;45.122;20.726;2022-07-30T04:24:52;10.48;;;7.68;;
60430;SDS011;46285;45.122;20.726;2022-07-30T04:27:20;17.60;;;8.23;;
60430;SDS011;46285;45.122;20.726;2022-07-30T04:29:47;10.87;;;6.97;;
60430;SDS011;46285;45.122;20.726;2022-07-30T04:32:13;13.60;;;7.30;;
60430;SDS011;46285;45.122;20.726;2022-07-30T04:34:49;8.20;;;6.03;;
60430;SDS011;46285;45.122;20.726;2022-07-30T04:37:16;12.57;;;6.43;;
60430;SDS011;46285;45.122;20.726;2022-07-30T04:39:43;12.90;;;6.32;;
60430;SDS011;46285;45.122;20.726;2022-07-30T04:42:10;11.50;;;6.20;;
60430;SDS011;46285;45.122;20.726;2022-07-30T04:44:37;10.52;;;6.25;;
60430;SDS011;46285;45.122;20.726;2022-07-30T04:47:03;10.10;;;6.68;;
60430;SDS011;46285;45.122;20.726;2022-07-30T04:49:29;10.77;;;6.90;;
60430;SDS011;46285;45.122;20.726;2022-07-30T04:51:56;9.57;;;6.20;;
60430;SDS011;46285;45.122;20.726;2022-07-30T04:54:23;10.02;;;6.82;;
60430;SDS011;46285;45.122;20.726;2022-07-30T04:56:50;8.52;;;6.10;;
60430;SDS011;46285;45.122;20.726;2022-07-30T04:59:17;12.18;;;6.22;;
60430;SDS011;46285;45.122;20.726;2022-07-30T05:01:46;10.40;;;5.22;;
60430;SDS011;46285;45.122;20.726;2022-07-30T05:04:14;15.73;;;6.60;;
60430;SDS011;46285;45.122;20.726;2022-07-30T05:06:41;15.35;;;6.15;;
60430;SDS011;46285;45.122;20.726;2022-07-30T05:09:08;15.68;;;6.28;;
60430;SDS011;46285;45.122;20.726;2022-07-30T05:11:36;10.25;;;5.85;;
60430;SDS011;46285;45.122;20.726;2022-07-30T05:14:02;16.70;;;5.75;;
60430;SDS011;46285;45.122;20.726;2022-07-30T05:16:28;11.65;;;6.30;;
60430;SDS011;46285;45.122;20.726;2022-07-30T05:18:54;30.60;;;7.53;;
60430;SDS011;46285;45.122;20.726;2022-07-30T05:21:20;11.07;;;5.60;;
60430;SDS011;46285;45.122;20.726;2022-07-30T05:23:47;13.32;;;6.13;;
60430;SDS011;46285;45.122;20.726;2022-07-30T05:26:13;8.68;;;6.00;;
60430;SDS011;46285;45.122;20.726;2022-07-30T05:28:39;9.02;;;6.35;;
60430;SDS011;46285;45.122;20.726;2022-07-30T05:31:05;11.98;;;5.90;;
60430;SDS011;46285;45.122;20.726;2022-07-30T05:33:31;11.95;;;6.78;;
60430;SDS011;46285;45.122;20.726;2022-07-30T05:35:57;13.27;;;6.38;;
60430;SDS011;46285;45.122;20.726;2022-07-30T05:38:24;10.20;;;5.75;;
60430;SDS011;46285;45.122;20.726;2022-07-30T05:40:50;15.48;;;6.45;;
60430;SDS011;46285;45.122;20.726;2022-07-30T05:43:16;9.47;;;4.93;;
60430;SDS011;46285;45.122;20.726;2022-07-30T05:45:43;9.10;;;5.82;;
60430;SDS011;46285;45.122;20.726;2022-07-30T05:48:09;9.85;;;6.15;;
60430;SDS011;46285;45.122;20.726;2022-07-30T05:50:35;8.95;;;6.05;;
60430;SDS011;46285;45.122;20.726;2022-07-30T05:53:01;9.07;;;5.35;;
60430;SDS011;46285;45.122;20.726;2022-07-30T05:55:27;8.43;;;5.40;;
60430;SDS011;46285;45.122;20.726;2022-07-30T05:57:53;8.57;;;6.10;;
60430;SDS011;46285;45.122;20.726;2022-07-30T06:00:20;9.90;;;5.93;;
60430;SDS011;46285;45.122;20.726;2022-07-30T06:02:46;8.80;;;5.83;;
60430;SDS011;46285;45.122;20.726;2022-07-30T06:05:12;10.00;;;6.17;;
60430;SDS011;46285;45.122;20.726;2022-07-30T06:07:38;9.93;;;6.47;;
60430;SDS011;46285;45.122;20.726;2022-07-30T06:10:04;13.63;;;6.90;;
60430;SDS011;46285;45.122;20.726;2022-07-30T06:12:31;13.68;;;5.57;;
60430;SDS011;46285;45.122;20.726;2022-07-30T06:14:57;13.02;;;6.68;;
60430;SDS011;46285;45.122;20.726;2022-07-30T06:17:23;9.65;;;5.90;;
60430;SDS011;46285;45.122;20.726;2022-07-30T06:19:49;12.07;;;6.83;;
60430;SDS011;46285;45.122;20.726;2022-07-30T06:22:17;10.00;;;6.03;;
60430;SDS011;46285;45.122;20.726;2022-07-30T06:24:43;11.00;;;5.83;;
60430;SDS011;46285;45.122;20.726;2022-07-30T06:27:09;10.68;;;6.03;;
60430;SDS011;46285;45.122;20.726;2022-07-30T06:29:35;9.87;;;6.13;;
60430;SDS011;46285;45.122;20.726;2022-07-30T06:32:02;16.13;;;6.72;;
60430;SDS011;46285;45.122;20.726;2022-07-30T06:34:29;10.52;;;5.22;;
60430;SDS011;46285;45.122;20.726;2022-07-30T06:36:55;14.37;;;7.13;;
60430;SDS011;46285;45.122;20.726;2022-07-30T06:39:21;11.03;;;6.03;;
60430;SDS011;46285;45.122;20.726;2022-07-30T06:41:47;13.27;;;6.38;;
60430;SDS011;46285;45.122;20.726;2022-07-30T06:44:13;11.77;;;6.70;;
60430;SDS011;46285;45.122;20.726;2022-07-30T06:46:39;9.13;;;6.03;;
60430;SDS011;46285;45.122;20.726;2022-07-30T06:49:06;16.67;;;6.40;;
60430;SDS011;46285;45.122;20.726;2022-07-30T06:51:32;13.07;;;6.88;;
60430;SDS011;46285;45.122;20.726;2022-07-30T06:53:58;12.87;;;6.40;;
60430;SDS011;46285;45.122;20.726;2022-07-30T06:56:24;13.43;;;6.97;;
60430;SDS011;46285;45.122;20.726;2022-07-30T06:58:50;16.37;;;6.67;;
60430;SDS011;46285;45.122;20.726;2022-07-30T07:01:17;17.20;;;5.93;;
60430;SDS011;46285;45.122;20.726;2022-07-30T07:03:44;9.15;;;5.40;;
60430;SDS011;46285;45.122;20.726;2022-07-30T07:06:11;10.43;;;5.47;;
60430;SDS011;46285;45.122;20.726;2022-07-30T07:08:37;13.30;;;6.47;;
60430;SDS011;46285;45.122;20.726;2022-07-30T07:11:03;15.00;;;5.75;;
60430;SDS011;46285;45.122;20.726;2022-07-30T07:13:29;10.68;;;6.10;;
60430;SDS011;46285;45.122;20.726;2022-07-30T07:15:56;10.10;;;5.60;;
60430;SDS011;46285;45.122;20.726;2022-07-30T07:18:22;12.77;;;5.68;;
60430;SDS011;46285;45.122;20.726;2022-07-30T07:20:48;11.10;;;6.25;;
60430;SDS011;46285;45.122;20.726;2022-07-30T07:23:14;12.80;;;5.57;;
60430;SDS011;46285;45.122;20.726;2022-07-30T07:25:40;12.65;;;7.05;;
60430;SDS011;46285;45.122;20.726;2022-07-30T07:28:07;10.57;;;6.05;;
60430;SDS011;46285;45.122;20.726;2022-07-30T07:30:33;12.15;;;5.85;;
60430;SDS011;46285;45.122;20.726;2022-07-30T07:32:59;21.85;;;7.93;;
60430;SDS011;46285;45.122;20.726;2022-07-30T07:35:25;10.80;;;6.35;;
60430;SDS011;46285;45.122;20.726;2022-07-30T07:37:51;12.02;;;5.80;;
60430;SDS011;46285;45.122;20.726;2022-07-30T07:40:17;12.23;;;5.78;;
60430;SDS011;46285;45.122;20.726;2022-07-30T07:42:44;13.40;;;6.40;;
60430;SDS011;46285;45.122;20.726;2022-07-30T07:45:10;11.75;;;6.32;;
60430;SDS011;46285;45.122;20.726;2022-07-30T07:47:46;12.98;;;5.97;;
60430;SDS011;46285;45.122;20.726;2022-07-30T07:50:14;9.20;;;5.68;;
60430;SDS011;46285;45.122;20.726;2022-07-30T07:52:40;14.95;;;6.50;;
60430;SDS011;46285;45.122;20.726;2022-07-30T07:55:06;10.82;;;6.32;;
60430;SDS011;46285;45.122;20.726;2022-07-30T07:57:38;12.63;;;6.03;;
60430;SDS011;46285;45.122;20.726;2022-07-30T08:00:04;11.70;;;6.93;;
60430;SDS011;46285;45.122;20.726;2022-07-30T08:02:30;13.05;;;6.32;;
60430;SDS011;46285;45.122;20.726;2022-07-30T08:04:56;17.85;;;6.95;;
60430;SDS011;46285;45.122;20.726;2022-07-30T08:07:23;20.70;;;6.72;;
60430;SDS011;46285;45.122;20.726;2022-07-30T08:09:49;13.70;;;6.75;;
60430;SDS011;46285;45.122;20.726;2022-07-30T08:12:15;8.20;;;6.38;;
60430;SDS011;46285;45.122;20.726;2022-07-30T08:14:41;16.38;;;7.47;;
60430;SDS011;46285;45.122;20.726;2022-07-30T08:17:08;10.45;;;6.85;;
60430;SDS011;46285;45.122;20.726;2022-07-30T08:19:34;8.20;;;5.47;;
60430;SDS011;46285;45.122;20.726;2022-07-30T08:22:00;9.48;;;6.20;;
60430;SDS011;46285;45.122;20.726;2022-07-30T08:24:26;12.35;;;6.63;;
60430;SDS011;46285;45.122;20.726;2022-07-30T08:26:52;23.42;;;7.38;;
60430;SDS011;46285;45.122;20.726;2022-07-30T08:29:18;9.05;;;5.85;;
60430;SDS011;46285;45.122;20.726;2022-07-30T08:31:45;12.75;;;6.05;;
60430;SDS011;46285;45.122;20.726;2022-07-30T08:34:11;17.77;;;7.15;;
60430;SDS011;46285;45.122;20.726;2022-07-30T08:36:38;13.55;;;6.65;;
60430;SDS011;46285;45.122;20.726;2022-07-30T08:39:04;9.20;;;5.50;;
60430;SDS011;46285;45.122;20.726;2022-07-30T08:41:30;16.10;;;6.38;;
60430;SDS011;46285;45.122;20.726;2022-07-30T08:43:57;12.20;;;5.88;;
60430;SDS011;46285;45.122;20.726;2022-07-30T08:46:26;9.73;;;6.32;;
60430;SDS011;46285;45.122;20.726;2022-07-30T08:48:52;10.77;;;6.10;;
60430;SDS011;46285;45.122;20.726;2022-07-30T08:53:45;10.73;;;6.10;;
60430;SDS011;46285;45.122;20.726;2022-07-30T08:56:12;19.98;;;7.18;;
60430;SDS011;46285;45.122;20.726;2022-07-30T08:58:38;27.27;;;8.45;;
60430;SDS011;46285;45.122;20.726;2022-07-30T09:01:06;19.88;;;8.52;;
60430;SDS011;46285;45.122;20.726;2022-07-30T09:03:33;22.85;;;9.90;;
60430;SDS011;46285;45.122;20.726;2022-07-30T09:08:25;13.88;;;7.90;;
60430;SDS011;46285;45.122;20.726;2022-07-30T09:10:51;14.20;;;9.13;;
60430;SDS011;46285;45.122;20.726;2022-07-30T09:13:24;21.23;;;11.27;;
60430;SDS011;46285;45.122;20.726;2022-07-30T09:15:51;14.15;;;9.40;;
60430;SDS011;46285;45.122;20.726;2022-07-30T09:18:31;14.73;;;8.98;;
60430;SDS011;46285;45.122;20.726;2022-07-30T09:20:58;14.45;;;9.63;;
60430;SDS011;46285;45.122;20.726;2022-07-30T09:23:25;16.25;;;9.55;;
60430;SDS011;46285;45.122;20.726;2022-07-30T09:25:51;16.17;;;9.63;;
60430;SDS011;46285;45.122;20.726;2022-07-30T09:28:26;12.80;;;9.93;;
60430;SDS011;46285;45.122;20.726;2022-07-30T09:30:53;14.77;;;10.20;;
60430;SDS011;46285;45.122;20.726;2022-07-30T09:35:45;18.77;;;12.48;;
60430;SDS011;46285;45.122;20.726;2022-07-30T09:38:20;19.80;;;10.65;;
60430;SDS011;46285;45.122;20.726;2022-07-30T09:40:51;15.60;;;11.82;;
60430;SDS011;46285;45.122;20.726;2022-07-30T09:43:17;15.63;;;10.32;;
60430;SDS011;46285;45.122;20.726;2022-07-30T09:45:50;13.83;;;11.70;;
60430;SDS011;46285;45.122;20.726;2022-07-30T09:48:20;17.33;;;10.77;;
60430;SDS011;46285;45.122;20.726;2022-07-30T09:50:46;12.95;;;10.30;;
60430;SDS011;46285;45.122;20.726;2022-07-30T09:53:13;11.98;;;9.63;;
60430;SDS011;46285;45.122;20.726;2022-07-30T09:55:39;12.63;;;8.73;;
60430;SDS011;46285;45.122;20.726;2022-07-30T09:58:06;12.20;;;8.90;;
60430;SDS011;46285;45.122;20.726;2022-07-30T10:00:33;12.52;;;9.30;;
60430;SDS011;46285;45.122;20.726;2022-07-30T10:05:25;20.40;;;13.10;;
60430;SDS011;46285;45.122;20.726;2022-07-30T10:07:53;21.20;;;13.35;;
60430;SDS011;46285;45.122;20.726;2022-07-30T10:10:21;17.92;;;13.30;;
60430;SDS011;46285;45.122;20.726;2022-07-30T10:12:50;21.20;;;16.27;;
60430;SDS011;46285;45.122;20.726;2022-07-30T10:15:17;22.15;;;14.00;;
60430;SDS011;46285;45.122;20.726;2022-07-30T10:17:44;19.98;;;14.60;;
60430;SDS011;46285;45.122;20.726;2022-07-30T10:20:11;16.38;;;13.15;;
60430;SDS011;46285;45.122;20.726;2022-07-30T10:25:04;15.45;;;13.65;;
60430;SDS011;46285;45.122;20.726;2022-07-30T10:27:31;26.00;;;14.73;;
60430;SDS011;46285;45.122;20.726;2022-07-30T10:29:58;19.27;;;14.98;;
60430;SDS011;46285;45.122;20.726;2022-07-30T10:32:25;16.20;;;14.60;;
60430;SDS011;46285;45.122;20.726;2022-07-30T10:34:52;16.80;;;15.20;;
60430;SDS011;46285;45.122;20.726;2022-07-30T10:37:18;14.37;;;12.27;;
60430;SDS011;46285;45.122;20.726;2022-07-30T10:47:35;13.52;;;11.85;;
60430;SDS011;46285;45.122;20.726;2022-07-30T10:50:12;13.20;;;10.27;;
60430;SDS011;46285;45.122;20.726;2022-07-30T10:52:43;13.02;;;11.73;;
60430;SDS011;46285;45.122;20.726;2022-07-30T10:55:13;15.15;;;10.82;;
60430;SDS011;46285;45.122;20.726;2022-07-30T11:00:30;10.55;;;9.05;;
60430;SDS011;46285;45.122;20.726;2022-07-30T11:03:12;11.75;;;9.82;;
60430;SDS011;46285;45.122;20.726;2022-07-30T11:05:39;11.10;;;9.55;;
60430;SDS011;46285;45.122;20.726;2022-07-30T11:11:01;11.25;;;8.70;;
60430;SDS011;46285;45.122;20.726;2022-07-30T11:13:49;10.10;;;8.45;;
60430;SDS011;46285;45.122;20.726;2022-07-30T11:16:17;11.45;;;8.73;;
60430;SDS011;46285;45.122;20.726;2022-07-30T11:19:03;10.05;;;8.02;;
60430;SDS011;46285;45.122;20.726;2022-07-30T11:21:29;11.02;;;7.35;;
60430;SDS011;46285;45.122;20.726;2022-07-30T11:23:56;9.65;;;8.20;;
60430;SDS011;46285;45.122;20.726;2022-07-30T11:29:04;12.07;;;8.18;;
60430;SDS011;46285;45.122;20.726;2022-07-30T11:31:34;11.52;;;7.88;;
60430;SDS011;46285;45.122;20.726;2022-07-30T11:42:27;10.70;;;8.57;;
60430;SDS011;46285;45.122;20.726;2022-07-30T11:47:38;10.73;;;9.05;;
60430;SDS011;46285;45.122;20.726;2022-07-30T11:50:05;15.82;;;9.45;;
60430;SDS011;46285;45.122;20.726;2022-07-30T11:52:31;11.40;;;10.18;;
60430;SDS011;46285;45.122;20.726;2022-07-30T11:54:57;12.55;;;11.05;;
60430;SDS011;46285;45.122;20.726;2022-07-30T11:57:39;13.85;;;10.55;;
60430;SDS011;46285;45.122;20.726;2022-07-30T12:00:05;12.45;;;10.15;;
60430;SDS011;46285;45.122;20.726;2022-07-30T12:04:58;13.38;;;9.63;;
60430;SDS011;46285;45.122;20.726;2022-07-30T12:07:24;9.65;;;8.57;;
60430;SDS011;46285;45.122;20.726;2022-07-30T12:09:50;14.55;;;9.93;;
60430;SDS011;46285;45.122;20.726;2022-07-30T12:12:20;11.55;;;9.75;;
60430;SDS011;46285;45.122;20.726;2022-07-30T12:14:55;12.45;;;9.27;;
60430;SDS011;46285;45.122;20.726;2022-07-30T12:17:38;13.93;;;9.35;;
60430;SDS011;46285;45.122;20.726;2022-07-30T12:20:12;18.90;;;10.32;;
60430;SDS011;46285;45.122;20.726;2022-07-30T12:22:40;11.98;;;8.75;;
60430;SDS011;46285;45.122;20.726;2022-07-30T12:25:10;9.93;;;8.77;;
60430;SDS011;46285;45.122;20.726;2022-07-30T12:27:37;12.02;;;9.90;;
60430;SDS011;46285;45.122;20.726;2022-07-30T12:30:03;11.35;;;9.35;;
60430;SDS011;46285;45.122;20.726;2022-07-30T12:32:30;11.27;;;10.07;;
60430;SDS011;46285;45.122;20.726;2022-07-30T12:34:57;10.98;;;9.80;;
60430;SDS011;46285;45.122;20.726;2022-07-30T12:37:23;16.15;;;14.50;;
60430;SDS011;46285;45.122;20.726;2022-07-30T12:40:09;15.88;;;14.27;;
60430;SDS011;46285;45.122;20.726;2022-07-30T12:42:36;17.88;;;13.10;;
60430;SDS011;46285;45.122;20.726;2022-07-30T12:45:03;13.85;;;12.55;;
60430;SDS011;46285;45.122;20.726;2022-07-30T12:47:30;16.33;;;13.85;;
60430;SDS011;46285;45.122;20.726;2022-07-30T12:49:59;15.45;;;12.57;;
60430;SDS011;46285;45.122;20.726;2022-07-30T12:52:30;14.02;;;12.73;;
60430;SDS011;46285;45.122;20.726;2022-07-30T12:55:02;13.63;;;12.10;;
60430;SDS011;46285;45.122;20.726;2022-07-30T12:57:51;14.27;;;12.77;;
60430;SDS011;46285;45.122;20.726;2022-07-30T13:00:17;15.95;;;12.82;;
60430;SDS011;46285;45.122;20.726;2022-07-30T13:02:43;16.25;;;12.13;;
60430;SDS011;46285;45.122;20.726;2022-07-30T13:05:10;15.07;;;11.45;;
60430;SDS011;46285;45.122;20.726;2022-07-30T13:07:51;19.15;;;13.02;;
60430;SDS011;46285;45.122;20.726;2022-07-30T13:10:17;15.07;;;12.88;;
60430;SDS011;46285;45.122;20.726;2022-07-30T13:12:46;14.60;;;13.07;;
60430;SDS011;46285;45.122;20.726;2022-07-30T13:15:18;15.60;;;12.73;;
60430;SDS011;46285;45.122;20.726;2022-07-30T13:17:45;19.90;;;13.32;;
60430;SDS011;46285;45.122;20.726;2022-07-30T13:20:12;12.98;;;11.60;;
60430;SDS011;46285;45.122;20.726;2022-07-30T13:22:38;14.48;;;11.85;;
60430;SDS011;46285;45.122;20.726;2022-07-30T13:25:05;14.73;;;11.93;;
60430;SDS011;46285;45.122;20.726;2022-07-30T13:27:31;16.55;;;12.40;;
60430;SDS011;46285;45.122;20.726;2022-07-30T13:29:57;19.27;;;11.73;;
60430;SDS011;46285;45.122;20.726;2022-07-30T13:32:23;15.53;;;10.73;;
60430;SDS011;46285;45.122;20.726;2022-07-30T13:34:49;14.80;;;10.70;;
60430;SDS011;46285;45.122;20.726;2022-07-30T13:37:16;15.55;;;11.00;;
60430;SDS011;46285;45.122;20.726;2022-07-30T13:39:42;15.02;;;12.05;;
60430;SDS011;46285;45.122;20.726;2022-07-30T13:42:08;15.63;;;12.30;;
60430;SDS011;46285;45.122;20.726;2022-07-30T13:44:35;14.07;;;11.00;;
60430;SDS011;46285;45.122;20.726;2022-07-30T13:47:01;14.43;;;10.85;;
60430;SDS011;46285;45.122;20.726;2022-07-30T13:49:28;15.18;;;11.50;;
60430;SDS011;46285;45.122;20.726;2022-07-30T13:51:54;17.25;;;11.05;;
60430;SDS011;46285;45.122;20.726;2022-07-30T13:54:20;16.17;;;11.97;;
60430;SDS011;46285;45.122;20.726;2022-07-30T13:56:46;17.25;;;11.32;;
60430;SDS011;46285;45.122;20.726;2022-07-30T13:59:12;13.25;;;11.18;;
60430;SDS011;46285;45.122;20.726;2022-07-30T14:01:39;20.15;;;10.88;;
60430;SDS011;46285;45.122;20.726;2022-07-30T14:04:05;18.80;;;11.25;;
60430;SDS011;46285;45.122;20.726;2022-07-30T14:06:32;18.38;;;11.45;;
60430;SDS011;46285;45.122;20.726;2022-07-30T14:08:58;15.65;;;11.85;;
60430;SDS011;46285;45.122;20.726;2022-07-30T14:11:24;14.75;;;11.18;;
60430;SDS011;46285;45.122;20.726;2022-07-30T14:13:51;14.82;;;11.68;;
60430;SDS011;46285;45.122;20.726;2022-07-30T14:16:17;14.23;;;11.98;;
60430;SDS011;46285;45.122;20.726;2022-07-30T14:18:43;13.27;;;11.85;;
60430;SDS011;46285;45.122;20.726;2022-07-30T14:21:10;18.77;;;12.75;;
60430;SDS011;46285;45.122;20.726;2022-07-30T14:23:36;15.40;;;10.90;;
60430;SDS011;46285;45.122;20.726;2022-07-30T14:26:02;14.07;;;10.80;;
60430;SDS011;46285;45.122;20.726;2022-07-30T14:31:27;15.07;;;11.18;;
60430;SDS011;46285;45.122;20.726;2022-07-30T14:33:53;15.57;;;11.50;;
60430;SDS011;46285;45.122;20.726;2022-07-30T14:36:19;14.80;;;11.05;;
60430;SDS011;46285;45.122;20.726;2022-07-30T14:38:46;14.25;;;11.25;;
60430;SDS011;46285;45.122;20.726;2022-07-30T14:41:12;14.77;;;11.00;;
60430;SDS011;46285;45.122;20.726;2022-07-30T14:43:38;15.13;;;11.37;;
60430;SDS011;46285;45.122;20.726;2022-07-30T14:46:04;17.63;;;12.57;;
60430;SDS011;46285;45.122;20.726;2022-07-30T14:48:30;26.13;;;10.63;;
60430;SDS011;46285;45.122;20.726;2022-07-30T14:50:56;14.85;;;10.98;;
60430;SDS011;46285;45.122;20.726;2022-07-30T14:53:25;17.25;;;11.55;;
60430;SDS011;46285;45.122;20.726;2022-07-30T14:55:51;13.98;;;10.93;;
60430;SDS011;46285;45.122;20.726;2022-07-30T14:58:17;14.83;;;11.17;;
60430;SDS011;46285;45.122;20.726;2022-07-30T15:00:43;11.60;;;10.03;;
60430;SDS011;46285;45.122;20.726;2022-07-30T15:03:10;13.73;;;11.18;;
60430;SDS011;46285;45.122;20.726;2022-07-30T15:05:36;14.93;;;11.40;;
60430;SDS011;46285;45.122;20.726;2022-07-30T15:08:02;12.17;;;10.97;;
60430;SDS011;46285;45.122;20.726;2022-07-30T15:10:28;16.52;;;10.95;;
60430;SDS011;46285;45.122;20.726;2022-07-30T15:12:55;11.32;;;10.05;;